Time;durP1;ratioP1;P1;durP2;ratioP2;P2;SDS_P1;SDS_P2;PMS_P1;PMS_P2;Temp;Humidity;BMP_temperature;BMP_pressure;BME280_temperature;BME280_humidity;BME280_pressure;Samples;Min_cycle;Max_cycle;Signal;HPM_P1;HPM_P2
2023/01/03 00:01:27;;;;;;;7.90;4.60;;;8.20;99.90;;;;;;5057839;28;20163;-80
2023/01/03 00:03:57;;;;;;;9.90;5.40;;;8.10;99.90;;;;;;5057714;28;20248;-83
2023/01/03 00:06:25;;;;;;;9.50;4.78;;;8.10;99.90;;;;;;5057060;28;20167;-80
2023/01/03 00:08:53;;;;;;;11.02;5.63;;;8.00;99.90;;;;;;5057915;28;20180;-79
2023/01/03 00:12:22;;;;;;;9.13;4.63;;;7.90;99.90;;;;;;5057520;28;20167;-80
2023/01/03 00:14:11;;;;;;;12.65;4.90;;;7.90;99.90;;;;;;5057376;28;20726;-80
2023/01/03 00:16:37;;;;;;;6.28;4.90;;;8.00;99.90;;;;;;5058422;28;20170;-82
2023/01/03 00:19:11;;;;;;;14.45;5.60;;;8.00;99.90;;;;;;5057686;28;20279;-84
2023/01/03 00:21:37;;;;;;;10.50;4.78;;;8.00;99.90;;;;;;5058705;28;20171;-80
2023/01/03 00:24:03;;;;;;;14.18;5.90;;;8.00;99.90;;;;;;5057779;28;20210;-82
2023/01/03 00:26:29;;;;;;;8.68;5.47;;;8.10;99.90;;;;;;5057319;28;20174;-81
2023/01/03 00:28:54;;;;;;;6.07;5.03;;;8.10;99.90;;;;;;5057158;28;20163;-89
2023/01/03 00:31:20;;;;;;;11.30;5.10;;;8.20;99.90;;;;;;5057928;28;20171;-86
2023/01/03 00:33:46;;;;;;;11.13;4.85;;;8.30;99.90;;;;;;5057763;28;20223;-90
2023/01/03 00:36:13;;;;;;;12.57;4.32;;;8.10;99.90;;;;;;5055860;28;20508;-84
2023/01/03 00:38:39;;;;;;;8.35;4.82;;;7.90;99.90;;;;;;5075276;28;20162;-81
2023/01/03 00:41:10;;;;;;;6.13;5.32;;;7.90;99.90;;;;;;5073812;28;20215;-86
2023/01/03 00:43:36;;;;;;;8.63;5.75;;;8.00;99.90;;;;;;5058202;28;20217;-83
2023/01/03 00:46:03;;;;;;;6.88;4.97;;;7.90;99.90;;;;;;5057932;28;20202;-81
2023/01/03 00:48:30;;;;;;;5.55;5.05;;;7.90;99.90;;;;;;5058094;28;20167;-80
2023/01/03 00:50:55;;;;;;;8.65;5.05;;;7.80;99.90;;;;;;5056735;28;20163;-82
2023/01/03 00:53:21;;;;;;;12.82;5.07;;;7.80;99.90;;;;;;5057119;28;20191;-91
2023/01/03 00:55:47;;;;;;;19.10;5.32;;;7.80;99.90;;;;;;5057390;28;20171;-79
2023/01/03 00:58:13;;;;;;;10.15;5.45;;;7.60;99.90;;;;;;5057073;28;20940;-81
2023/01/03 01:00:39;;;;;;;8.35;5.25;;;7.70;99.90;;;;;;5056280;28;20205;-91
2023/01/03 01:03:05;;;;;;;16.08;5.18;;;7.70;99.90;;;;;;5065985;28;20278;-80
2023/01/03 01:05:31;;;;;;;11.32;5.80;;;7.80;99.90;;;;;;5076422;28;20186;-79
2023/01/03 01:07:57;;;;;;;11.93;5.38;;;7.70;99.90;;;;;;5068537;28;20175;-79
2023/01/03 01:10:23;;;;;;;14.52;5.60;;;7.80;99.90;;;;;;5055838;28;20164;-78
2023/01/03 01:12:53;;;;;;;15.15;5.82;;;7.60;99.90;;;;;;5058258;28;20187;-78
2023/01/03 01:15:19;;;;;;;11.50;5.72;;;7.40;99.90;;;;;;5058986;28;20186;-79
2023/01/03 01:17:44;;;;;;;7.43;5.97;;;7.40;99.90;;;;;;5060870;28;20163;-78
2023/01/03 01:20:10;;;;;;;9.43;5.43;;;7.50;99.90;;;;;;5056446;28;20163;-78
2023/01/03 01:22:35;;;;;;;8.27;5.65;;;7.60;99.90;;;;;;5057171;28;20231;-79
2023/01/03 01:25:01;;;;;;;9.90;5.47;;;7.70;99.90;;;;;;5054832;28;20532;-79
2023/01/03 01:27:27;;;;;;;7.68;6.53;;;7.70;99.90;;;;;;5055936;28;20167;-78
2023/01/03 01:29:53;;;;;;;15.68;6.80;;;7.60;99.90;;;;;;5055204;28;20175;-79
2023/01/03 01:32:18;;;;;;;12.07;6.10;;;7.70;99.90;;;;;;5055573;28;20178;-78
2023/01/03 01:34:44;;;;;;;6.82;6.13;;;7.50;99.90;;;;;;5053827;28;20216;-79
2023/01/03 01:37:09;;;;;;;12.65;6.10;;;7.50;99.90;;;;;;5055080;28;20208;-78
2023/01/03 01:39:35;;;;;;;17.48;5.72;;;7.40;99.90;;;;;;5054875;28;20233;-78
2023/01/03 01:45:00;;;;;;;6.93;5.60;;;7.40;99.90;;;;;;5055388;28;20658;-79
2023/01/03 01:47:25;;;;;;;8.07;5.88;;;7.40;99.90;;;;;;5055236;28;20167;-79
2023/01/03 01:50:02;;;;;;;7.40;5.13;;;7.30;99.90;;;;;;5054787;28;20182;-79
2023/01/03 01:52:30;;;;;;;6.88;6.18;;;7.50;99.90;;;;;;5054876;28;20167;-79
2023/01/03 01:55:00;;;;;;;13.95;6.38;;;7.50;99.90;;;;;;5055204;28;20159;-79
2023/01/03 01:57:26;;;;;;;6.43;5.70;;;7.50;99.90;;;;;;5055132;28;20193;-78
2023/01/03 01:59:51;;;;;;;9.90;6.05;;;7.50;99.90;;;;;;5055372;28;20163;-79
2023/01/03 02:02:20;;;;;;;8.98;5.88;;;7.40;99.90;;;;;;5055530;28;20230;-79
2023/01/03 02:04:48;;;;;;;9.57;5.43;;;7.50;99.90;;;;;;5055474;28;20694;-78
2023/01/03 02:07:14;;;;;;;7.68;5.10;;;7.50;99.90;;;;;;5055575;28;20246;-79
2023/01/03 02:09:40;;;;;;;7.38;4.68;;;7.50;99.90;;;;;;5054431;28;20162;-87
2023/01/03 02:15:14;;;;;;;12.65;5.78;;;7.50;99.90;;;;;;5054853;28;20217;-79
2023/01/03 02:18:10;;;;;;;6.50;5.85;;;7.70;99.90;;;;;;5056412;28;20163;-79
2023/01/03 02:21:01;;;;;;;16.67;7.07;;;7.70;99.90;;;;;;5055133;28;20202;-79
2023/01/03 02:23:45;;;;;;;9.48;6.00;;;7.80;99.90;;;;;;5068871;28;20262;-78
2023/01/03 02:26:21;;;;;;;12.23;6.45;;;7.60;99.90;;;;;;5075753;28;20175;-79
2023/01/03 02:29:16;;;;;;;9.90;6.82;;;7.50;99.90;;;;;;5075674;28;20178;-79
2023/01/03 02:31:53;;;;;;;14.35;7.00;;;7.40;99.90;;;;;;5091683;28;20182;-79
2023/01/03 02:34:48;;;;;;;8.98;6.25;;;7.30;99.90;;;;;;5075925;28;20174;-79
2023/01/03 02:37:40;;;;;;;7.30;5.30;;;7.30;99.90;;;;;;5074981;28;20175;-78
2023/01/03 02:40:30;;;;;;;13.48;6.30;;;7.10;99.90;;;;;;5075585;28;20158;-79
2023/01/03 02:43:06;;;;;;;11.13;6.15;;;7.00;99.90;;;;;;5075252;28;20227;-79
2023/01/03 02:46:11;;;;;;;7.13;6.03;;;6.70;99.90;;;;;;5075850;28;20178;-79
2023/01/03 02:48:56;;;;;;;9.93;6.03;;;6.70;99.90;;;;;;5075974;28;20151;-82
2023/01/03 02:51:39;;;;;;;7.35;5.70;;;6.90;99.90;;;;;;5075283;28;20186;-79
2023/01/03 02:54:09;;;;;;;7.32;6.13;;;6.90;99.90;;;;;;5076123;28;20179;-79
2023/01/03 02:56:41;;;;;;;14.95;5.63;;;6.90;99.90;;;;;;5076448;28;20151;-78
2023/01/03 02:59:13;;;;;;;6.95;5.38;;;6.90;99.90;;;;;;5076272;28;20168;-79
2023/01/03 03:01:44;;;;;;;10.52;7.22;;;6.90;99.90;;;;;;5075248;28;20144;-79
2023/01/03 03:04:11;;;;;;;6.78;5.22;;;7.00;99.90;;;;;;5074381;28;20279;-78
2023/01/03 03:07:04;;;;;;;11.18;6.22;;;6.90;99.90;;;;;;5075632;28;20166;-78
2023/01/03 03:09:30;;;;;;;11.38;6.60;;;6.80;99.90;;;;;;5075353;28;20175;-79
2023/01/03 03:14:47;;;;;;;10.02;5.22;;;7.00;99.90;;;;;;5075456;28;20215;-79
2023/01/03 03:17:21;;;;;;;8.98;6.38;;;6.80;99.90;;;;;;5076932;28;20150;-78
2023/01/03 03:25:49;;;;;;;5.80;5.15;;;6.80;99.90;;;;;;5076584;28;20170;-79
2023/01/03 03:28:36;;;;;;;11.73;5.35;;;6.80;99.90;;;;;;5079190;28;20175;-79
2023/01/03 03:31:06;;;;;;;16.65;5.60;;;6.60;99.90;;;;;;5079743;28;20167;-79
2023/01/03 03:33:37;;;;;;;8.75;6.00;;;6.60;99.90;;;;;;5080010;28;20186;-79
2023/01/03 03:36:07;;;;;;;8.25;5.95;;;6.70;99.90;;;;;;5078837;28;20189;-80
2023/01/03 03:38:37;;;;;;;8.43;5.50;;;6.80;99.90;;;;;;5079006;28;20268;-79
2023/01/03 03:48:18;;;;;;;6.60;4.00;;;7.20;99.90;;;;;;5077573;28;20189;-79
2023/01/03 03:50:56;;;;;;;7.50;4.05;;;7.40;99.90;;;;;;5088215;28;20194;-79
2023/01/03 03:53:28;;;;;;;10.88;4.47;;;7.40;99.90;;;;;;5078908;28;20198;-80
2023/01/03 03:56:16;;;;;;;5.80;4.70;;;7.60;99.90;;;;;;5077871;28;20206;-79
2023/01/03 03:59:04;;;;;;;8.20;3.35;;;7.80;99.90;;;;;;5077349;28;20171;-79
2023/01/03 04:01:34;;;;;;;3.72;3.40;;;7.80;99.90;;;;;;5075821;28;20175;-80
2023/01/03 04:04:06;;;;;;;4.72;3.72;;;7.80;99.90;;;;;;5075877;28;20222;-79
2023/01/03 04:06:44;;;;;;;4.35;3.58;;;7.70;99.90;;;;;;5076454;28;20686;-79
2023/01/03 04:09:11;;;;;;;4.53;4.10;;;7.70;99.90;;;;;;5076181;28;20181;-80
2023/01/03 04:11:36;;;;;;;4.45;3.90;;;7.80;99.90;;;;;;5076595;28;20226;-79
2023/01/03 04:14:02;;;;;;;3.78;3.20;;;7.90;99.90;;;;;;5075709;28;20195;-79
2023/01/03 04:16:28;;;;;;;6.32;3.53;;;7.90;99.90;;;;;;5074641;28;20196;-79
2023/01/03 04:18:53;;;;;;;13.15;4.10;;;7.80;99.90;;;;;;5057683;28;20213;-79
2023/01/03 04:21:19;;;;;;;6.90;4.35;;;7.60;99.90;;;;;;5076247;28;20178;-79
2023/01/03 04:23:44;;;;;;;6.65;4.35;;;7.80;99.90;;;;;;5075390;28;20222;-79
2023/01/03 04:26:10;;;;;;;8.00;4.60;;;7.70;99.90;;;;;;5075444;28;20170;-78
2023/01/03 04:28:35;;;;;;;5.78;4.68;;;7.60;99.90;;;;;;5078229;28;20182;-80
2023/01/03 04:31:01;;;;;;;10.45;4.32;;;7.60;99.90;;;;;;5076492;28;20175;-79
2023/01/03 04:33:27;;;;;;;7.43;4.80;;;7.50;99.90;;;;;;5075267;28;20187;-79
2023/01/03 04:35:57;;;;;;;5.38;4.88;;;7.70;99.90;;;;;;5092982;28;20179;-79
2023/01/03 04:38:24;;;;;;;9.02;4.55;;;7.90;99.90;;;;;;5075552;28;20860;-80
2023/01/03 04:40:50;;;;;;;5.80;5.00;;;7.80;99.90;;;;;;5093757;28;20170;-79
2023/01/03 04:44:15;;;;;;;12.07;4.68;;;8.00;99.90;;;;;;5094021;28;20209;-79
2023/01/03 04:46:10;;;;;;;13.65;5.18;;;7.90;99.90;;;;;;5090417;28;20179;-79
2023/01/03 04:48:36;;;;;;;11.30;5.88;;;8.10;99.90;;;;;;5093067;28;20175;-79
2023/01/03 04:51:01;;;;;;;10.90;6.05;;;8.20;99.90;;;;;;5092435;28;20171;-78
2023/01/03 04:53:28;;;;;;;6.53;4.88;;;8.30;99.90;;;;;;5084312;28;20186;-78
2023/01/03 04:55:57;;;;;;;8.18;6.07;;;8.40;99.90;;;;;;5079794;28;20190;-79
2023/01/03 04:58:24;;;;;;;21.95;6.20;;;8.40;99.90;;;;;;5080772;28;20162;-79
2023/01/03 05:00:50;;;;;;;10.35;6.20;;;8.30;99.90;;;;;;5079442;28;20170;-79
2023/01/03 05:03:16;;;;;;;8.85;5.43;;;8.10;99.90;;;;;;5080204;28;20277;-79
2023/01/03 05:05:42;;;;;;;10.27;6.35;;;8.20;99.90;;;;;;5079223;28;20173;-79
2023/01/03 05:08:09;;;;;;;10.13;6.68;;;8.00;99.90;;;;;;5078401;28;20241;-79
2023/01/03 05:10:37;;;;;;;9.35;7.63;;;8.00;99.90;;;;;;5076379;28;20174;-79
2023/01/03 05:13:03;;;;;;;10.18;6.40;;;7.90;99.90;;;;;;5076213;28;20214;-79
2023/01/03 05:15:33;;;;;;;7.15;5.90;;;7.90;99.90;;;;;;5076431;28;20158;-79
2023/01/03 05:17:58;;;;;;;11.90;6.38;;;7.80;99.90;;;;;;5075956;28;20167;-79
2023/01/03 05:26:05;;;;;;;9.68;7.45;;;7.90;99.90;;;;;;5076147;28;20189;-78
2023/01/03 05:28:31;;;;;;;12.20;7.45;;;7.90;99.90;;;;;;5075711;28;20249;-79
2023/01/03 05:30:58;;;;;;;7.90;7.07;;;7.90;99.90;;;;;;5075576;28;20194;-78
2023/01/03 05:33:24;;;;;;;8.15;7.32;;;7.90;99.90;;;;;;5073041;28;20222;-79
2023/01/03 05:35:49;;;;;;;14.50;8.85;;;7.90;99.90;;;;;;5075614;28;20665;-79
2023/01/03 05:38:15;;;;;;;10.68;8.10;;;7.70;99.90;;;;;;5074592;28;20158;-79
2023/01/03 05:40:41;;;;;;;12.73;8.25;;;7.70;99.90;;;;;;5075233;28;20229;-79
2023/01/03 05:43:07;;;;;;;15.68;9.07;;;7.70;99.90;;;;;;5075170;28;20686;-78
2023/01/03 05:45:37;;;;;;;15.55;9.40;;;7.80;99.90;;;;;;5074925;28;20163;-79
2023/01/03 05:48:03;;;;;;;16.80;8.38;;;7.70;99.90;;;;;;5074251;28;20633;-79
2023/01/03 05:50:28;;;;;;;11.38;8.65;;;7.60;99.90;;;;;;5072913;28;20166;-79
2023/01/03 05:52:54;;;;;;;12.18;9.00;;;7.60;99.90;;;;;;5074593;28;20198;-79
2023/01/03 05:55:20;;;;;;;15.82;8.88;;;7.60;99.90;;;;;;5074915;28;20587;-79
2023/01/03 05:57:46;;;;;;;10.60;8.43;;;7.60;99.90;;;;;;5073812;28;20177;-79
2023/01/03 06:00:12;;;;;;;16.52;9.20;;;7.70;99.90;;;;;;5075711;28;20693;-79
2023/01/03 06:02:37;;;;;;;19.45;9.68;;;7.80;99.90;;;;;;5080577;28;20179;-78
2023/01/03 06:05:06;;;;;;;12.55;9.85;;;7.70;99.90;;;;;;5080567;28;20170;-79
2023/01/03 06:07:32;;;;;;;14.70;9.60;;;7.90;99.90;;;;;;5078221;28;20163;-80
2023/01/03 06:09:58;;;;;;;14.07;9.45;;;7.90;99.90;;;;;;5078712;28;20159;-79
2023/01/03 06:12:28;;;;;;;18.83;9.45;;;8.10;99.90;;;;;;5060565;28;20546;-79
2023/01/03 06:14:54;;;;;;;13.75;9.43;;;7.90;99.90;;;;;;5075694;28;20207;-81
2023/01/03 06:20:04;;;;;;;11.85;9.65;;;7.70;99.90;;;;;;5080224;28;20173;-79
2023/01/03 06:22:29;;;;;;;17.02;9.80;;;7.90;99.90;;;;;;5077464;28;20198;-79
2023/01/03 06:24:55;;;;;;;18.73;9.40;;;7.90;99.90;;;;;;5076983;28;20674;-79
2023/01/03 06:27:21;;;;;;;14.98;8.85;;;7.90;99.90;;;;;;5077293;28;20166;-79
2023/01/03 06:29:46;;;;;;;16.38;9.38;;;7.90;99.90;;;;;;5079050;28;20192;-79
2023/01/03 06:32:12;;;;;;;12.57;8.68;;;7.90;99.90;;;;;;5078281;28;20168;-78
2023/01/03 06:34:38;;;;;;;12.82;8.23;;;8.00;99.90;;;;;;5079257;28;20209;-79
2023/01/03 06:37:04;;;;;;;14.30;8.88;;;8.00;99.90;;;;;;5083286;28;20173;-78
2023/01/03 06:39:32;;;;;;;16.60;8.88;;;8.10;99.90;;;;;;5081704;28;20162;-78
2023/01/03 06:42:38;;;;;;;17.35;9.23;;;8.10;99.90;;;;;;5082064;28;20201;-78
2023/01/03 06:53:10;;;;;;;12.73;8.77;;;8.20;99.90;;;;;;5083161;28;20206;-78
2023/01/03 06:53:12;;;;;;;13.73;8.07;;;8.20;99.90;;;;;;5083898;28;20201;-78
2023/01/03 06:55:39;;;;;;;8.82;7.28;;;8.30;99.90;;;;;;5080294;28;20168;-79
2023/01/03 06:58:05;;;;;;;13.43;8.40;;;8.40;99.90;;;;;;5080633;28;20192;-79
2023/01/03 07:00:31;;;;;;;11.00;8.73;;;8.50;99.90;;;;;;5079524;28;20609;-79
2023/01/03 07:02:57;;;;;;;11.50;7.63;;;8.50;99.90;;;;;;5076818;28;20556;-78
2023/01/03 07:05:25;;;;;;;10.95;7.28;;;8.40;99.90;;;;;;5083948;28;20167;-79
2023/01/03 07:07:51;;;;;;;11.43;7.40;;;8.40;99.90;;;;;;5083005;28;20162;-86
2023/01/03 07:10:16;;;;;;;9.32;7.50;;;8.50;99.90;;;;;;5081750;28;20188;-80
2023/01/03 07:15:30;;;;;;;7.00;6.20;;;8.50;99.90;;;;;;5085731;28;20204;-80
2023/01/03 07:17:57;;;;;;;11.25;6.93;;;8.50;99.90;;;;;;5083463;28;20166;-78
2023/01/03 07:20:23;;;;;;;8.38;5.85;;;8.50;99.90;;;;;;5079380;28;20660;-78
2023/01/03 07:22:49;;;;;;;7.40;6.18;;;8.40;99.90;;;;;;5060983;28;20194;-78
2023/01/03 07:27:55;;;;;;;6.43;5.43;;;8.60;99.90;;;;;;5081163;28;20626;-81
2023/01/03 07:30:22;;;;;;;10.48;6.00;;;8.80;99.90;;;;;;5080144;28;20166;-78
2023/01/03 07:32:50;;;;;;;12.93;6.68;;;8.90;99.90;;;;;;5082395;28;20201;-78
2023/01/03 07:35:17;;;;;;;7.25;5.10;;;9.00;99.90;;;;;;5079342;28;20196;-85
2023/01/03 07:37:46;;;;;;;16.25;6.25;;;8.90;99.90;;;;;;5082025;28;20193;-84
2023/01/03 07:40:12;;;;;;;16.65;7.13;;;9.00;99.90;;;;;;5086766;28;20246;-78
2023/01/03 07:45:22;;;;;;;8.45;5.95;;;8.90;99.90;;;;;;5087041;28;20197;-79
2023/01/03 07:47:49;;;;;;;6.53;5.70;;;8.90;99.90;;;;;;5085190;28;20146;-80
2023/01/03 07:50:15;;;;;;;9.07;6.30;;;9.10;99.90;;;;;;5087819;28;20174;-80
2023/01/03 07:52:42;;;;;;;6.70;5.78;;;9.00;99.90;;;;;;5088727;28;20182;-81
2023/01/03 07:55:08;;;;;;;11.05;6.05;;;9.00;99.90;;;;;;5086478;28;20151;-79
2023/01/03 07:57:33;;;;;;;12.75;5.95;;;9.00;99.90;;;;;;5083390;28;20300;-88
2023/01/03 08:00:00;;;;;;;7.50;5.95;;;9.10;99.90;;;;;;5084229;28;20177;-79
2023/01/03 08:02:26;;;;;;;7.28;6.57;;;9.10;99.90;;;;;;5088109;28;20177;-79
2023/01/03 08:04:52;;;;;;;6.32;5.70;;;9.10;99.90;;;;;;5079421;28;20213;-81
2023/01/03 08:07:19;;;;;;;11.63;6.22;;;9.10;99.90;;;;;;5086963;28;20170;-80
2023/01/03 08:15:12;;;;;;;16.13;7.45;;;9.10;99.90;;;;;;5081708;28;20185;-80
2023/01/03 08:17:38;;;;;;;15.75;7.05;;;9.20;99.90;;;;;;5079753;28;20158;-79
2023/01/03 08:20:04;;;;;;;13.88;8.57;;;9.10;99.90;;;;;;5081440;28;20579;-79
2023/01/03 08:22:31;;;;;;;19.33;8.38;;;9.20;99.90;;;;;;5080016;28;20242;-79
2023/01/03 08:24:57;;;;;;;15.68;7.38;;;9.20;99.90;;;;;;5083697;28;20221;-81
2023/01/03 08:27:23;;;;;;;12.60;7.70;;;9.30;99.90;;;;;;5079572;28;20562;-85
2023/01/03 08:29:49;;;;;;;9.13;6.85;;;9.30;99.90;;;;;;5078034;28;20181;-80
2023/01/03 08:32:17;;;;;;;11.00;6.88;;;9.40;99.90;;;;;;5078204;28;20249;-80
2023/01/03 08:34:47;;;;;;;8.32;7.20;;;9.50;99.90;;;;;;5080952;28;20315;-79
2023/01/03 08:37:14;;;;;;;10.50;7.93;;;9.50;99.90;;;;;;5082408;28;20173;-78
2023/01/03 08:39:44;;;;;;;11.82;7.13;;;9.40;99.90;;;;;;5079724;28;20253;-79
2023/01/03 08:42:14;;;;;;;12.05;7.63;;;9.40;99.90;;;;;;5082849;28;20643;-79
2023/01/03 08:44:43;;;;;;;10.50;6.95;;;9.40;99.90;;;;;;5084830;28;20241;-80
2023/01/03 08:47:09;;;;;;;11.85;8.05;;;9.40;99.90;;;;;;5087348;28;20163;-81
2023/01/03 08:49:38;;;;;;;19.45;7.75;;;9.40;99.90;;;;;;5084545;28;20200;-81
2023/01/03 08:52:04;;;;;;;12.00;7.00;;;9.20;99.90;;;;;;5081619;28;20159;-82
2023/01/03 08:54:32;;;;;;;14.90;7.22;;;9.10;99.90;;;;;;5078735;28;20214;-81
2023/01/03 08:56:58;;;;;;;10.80;6.95;;;9.10;99.90;;;;;;5077577;28;20170;-79
2023/01/03 08:59:23;;;;;;;12.25;7.70;;;9.20;99.90;;;;;;5075828;28;20167;-79
2023/01/03 09:01:49;;;;;;;13.20;7.25;;;9.10;99.90;;;;;;5081016;28;20241;-78
2023/01/03 09:04:16;;;;;;;10.55;7.53;;;9.10;99.90;;;;;;5080841;28;20217;-78
2023/01/03 09:06:42;;;;;;;9.13;7.38;;;9.00;99.90;;;;;;5079346;28;20228;-79
2023/01/03 09:09:08;;;;;;;12.65;7.25;;;8.90;99.90;;;;;;5079127;28;20167;-78
2023/01/03 09:11:34;;;;;;;9.35;8.15;;;9.00;99.90;;;;;;5080830;28;20158;-78
2023/01/03 09:14:00;;;;;;;16.13;8.13;;;8.90;99.90;;;;;;5080093;28;20271;-79
2023/01/03 09:16:26;;;;;;;12.95;8.60;;;8.90;99.90;;;;;;5080756;28;20178;-79
2023/01/03 09:18:52;;;;;;;9.60;8.30;;;8.90;99.90;;;;;;5080363;28;20167;-79
2023/01/03 09:21:17;;;;;;;12.27;8.07;;;8.90;99.90;;;;;;5080024;28;20269;-79
2023/01/03 09:23:43;;;;;;;16.95;8.05;;;9.10;99.90;;;;;;5079501;28;20238;-80
2023/01/03 09:26:09;;;;;;;17.27;7.65;;;9.10;99.90;;;;;;5079657;28;20175;-79
2023/01/03 09:28:34;;;;;;;17.85;7.32;;;9.00;99.90;;;;;;5081510;28;20194;-78
2023/01/03 09:31:01;;;;;;;21.38;7.32;;;8.90;99.90;;;;;;5082129;28;20163;-78
2023/01/03 09:33:27;;;;;;;13.98;7.55;;;8.90;99.90;;;;;;5083709;28;20202;-77
2023/01/03 09:35:53;;;;;;;13.40;9.07;;;9.00;99.90;;;;;;5077455;28;20184;-81
2023/01/03 09:38:23;;;;;;;14.50;8.35;;;9.00;99.90;;;;;;5079855;28;20188;-78
2023/01/03 09:40:58;;;;;;;12.00;6.70;;;9.10;99.90;;;;;;5081523;28;20162;-79
2023/01/03 09:43:35;;;;;;;8.27;5.95;;;9.20;99.90;;;;;;5079564;28;20241;-79
2023/01/03 09:46:04;;;;;;;17.08;5.97;;;9.20;99.90;;;;;;5085981;28;20162;-79
2023/01/03 09:48:36;;;;;;;17.67;6.30;;;9.20;99.90;;;;;;5084006;28;20574;-79
2023/01/03 09:51:03;;;;;;;9.38;5.20;;;9.30;99.90;;;;;;5075405;28;20545;-80
2023/01/03 10:05:11;;;;;;;11.77;5.32;;;9.10;99.90;;;;;;5076078;28;20669;-80
2023/01/03 10:07:48;;;;;;;9.60;5.13;;;9.30;99.90;;;;;;5074565;28;20193;-79
2023/01/03 10:10:30;;;;;;;11.93;5.03;;;9.30;99.90;;;;;;5079690;28;20541;-82
2023/01/03 10:13:16;;;;;;;12.15;4.85;;;9.50;99.90;;;;;;5077705;28;20214;-87
2023/01/03 10:15:54;;;;;;;15.02;5.78;;;9.40;99.90;;;;;;5074765;28;20166;-79
2023/01/03 10:18:44;;;;;;;14.27;5.50;;;9.50;99.90;;;;;;5078357;28;20216;-80
2023/01/03 10:21:30;;;;;;;6.15;5.00;;;9.50;99.90;;;;;;5078866;28;20166;-87
2023/01/03 10:23:55;;;;;;;14.15;5.15;;;9.70;99.90;;;;;;5076049;28;20241;-79
2023/01/03 10:26:24;;;;;;;5.10;3.70;;;9.70;99.90;;;;;;5072755;28;20164;-82
2023/01/03 10:28:50;;;;;;;3.55;3.10;;;9.60;99.90;;;;;;5071851;28;20223;-78
2023/01/03 10:31:27;;;;;;;5.22;3.10;;;9.80;99.90;;;;;;5073604;28;20171;-79
2023/01/03 10:33:52;;;;;;;4.20;3.33;;;9.70;99.90;;;;;;5072141;28;20197;-78
2023/01/03 10:36:20;;;;;;;7.00;3.63;;;9.70;99.90;;;;;;5072591;28;20163;-79
2023/01/03 10:38:46;;;;;;;4.25;2.88;;;9.70;99.90;;;;;;5072850;28;20257;-78
2023/01/03 10:41:29;;;;;;;8.15;3.72;;;9.80;99.90;;;;;;5073528;28;20174;-78
2023/01/03 10:44:01;;;;;;;5.45;3.03;;;9.90;99.90;;;;;;5073385;28;20205;-78
2023/01/03 10:46:28;;;;;;;8.27;3.28;;;9.90;99.90;;;;;;5073259;28;20170;-79
2023/01/03 10:48:56;;;;;;;6.53;3.38;;;9.70;99.90;;;;;;5073022;28;20158;-79
2023/01/03 10:51:35;;;;;;;7.15;2.88;;;9.80;99.90;;;;;;5071852;28;20247;-78
2023/01/03 10:54:11;;;;;;;7.28;3.38;;;10.00;99.90;;;;;;5072833;28;20186;-79
2023/01/03 10:56:37;;;;;;;9.52;3.30;;;10.00;99.90;;;;;;5074071;28;20151;-79
2023/01/03 10:59:26;;;;;;;11.48;3.28;;;10.10;99.90;;;;;;5073663;28;20167;-81
2023/01/03 11:01:59;;;;;;;3.42;2.03;;;10.00;99.90;;;;;;5073761;28;20155;-81
2023/01/03 11:04:26;;;;;;;8.30;2.85;;;10.20;99.90;;;;;;5072757;28;20210;-78
2023/01/03 11:07:07;;;;;;;5.38;2.80;;;10.50;99.90;;;;;;5073513;28;20253;-78
2023/01/03 11:09:50;;;;;;;8.82;2.60;;;10.40;99.90;;;;;;5072852;28;20167;-78
2023/01/03 11:12:39;;;;;;;3.97;3.08;;;10.70;99.90;;;;;;5073122;28;20169;-79
2023/01/03 11:15:15;;;;;;;3.70;3.00;;;10.40;99.90;;;;;;5072600;28;20197;-78
2023/01/03 11:17:55;;;;;;;9.52;3.75;;;10.30;99.90;;;;;;5072647;28;20167;-78
2023/01/03 11:20:29;;;;;;;12.95;3.08;;;10.50;99.90;;;;;;5071430;28;20312;-79
2023/01/03 11:23:01;;;;;;;6.03;3.53;;;10.40;99.90;;;;;;5072248;28;20197;-80
2023/01/03 11:25:43;;;;;;;4.65;2.83;;;10.30;99.90;;;;;;5072839;28;20174;-79
2023/01/03 11:28:46;;;;;;;7.43;2.92;;;10.40;99.90;;;;;;5073676;28;20166;-79
2023/01/03 11:31:35;;;;;;;5.35;2.83;;;10.50;99.90;;;;;;5072190;28;20170;-80
2023/01/03 11:34:21;;;;;;;5.53;2.63;;;10.60;99.90;;;;;;5072441;28;20216;-79
2023/01/03 11:37:12;;;;;;;8.07;3.08;;;10.50;99.90;;;;;;5072295;28;20173;-79
2023/01/03 11:39:45;;;;;;;5.60;2.80;;;10.50;99.90;;;;;;5070730;28;20175;-80
2023/01/03 11:42:32;;;;;;;8.18;3.08;;;10.20;99.90;;;;;;5072264;28;20190;-79
2023/01/03 11:45:06;;;;;;;7.75;2.65;;;10.20;99.90;;;;;;5072444;28;20202;-80
2023/01/03 11:48:03;;;;;;;5.57;3.03;;;10.20;99.90;;;;;;5072425;28;20220;-78
2023/01/03 11:50:51;;;;;;;11.10;2.95;;;10.30;99.90;;;;;;5079833;28;20237;-78
2023/01/03 11:53:25;;;;;;;9.27;2.95;;;10.30;99.90;;;;;;5075877;28;20185;-79
2023/01/03 11:56:21;;;;;;;6.97;3.08;;;10.00;99.90;;;;;;5075750;28;20193;-90
2023/01/03 11:59:09;;;;;;;5.45;2.42;;;10.10;99.90;;;;;;5077078;28;20169;-79
2023/01/03 12:02:10;;;;;;;9.27;3.40;;;10.20;99.90;;;;;;5076974;28;20171;-87
2023/01/03 12:05:05;;;;;;;9.75;2.70;;;10.30;99.90;;;;;;5074212;28;20251;-79
2023/01/03 12:07:53;;;;;;;5.28;2.58;;;10.30;99.90;;;;;;5076326;28;20235;-78
2023/01/03 12:10:51;;;;;;;6.82;3.85;;;10.30;99.90;;;;;;5075920;28;20158;-78
2023/01/03 12:13:23;;;;;;;5.88;3.35;;;10.50;99.90;;;;;;5076667;28;20585;-79
2023/01/03 12:16:00;;;;;;;3.13;2.55;;;10.70;99.90;;;;;;5079374;28;20182;-78
2023/01/03 12:18:28;;;;;;;6.88;3.50;;;10.70;99.90;;;;;;5079758;28;20158;-80
2023/01/03 12:20:58;;;;;;;5.25;2.65;;;10.80;99.90;;;;;;5082616;28;20177;-78
2023/01/03 12:23:46;;;;;;;6.63;2.45;;;10.90;99.90;;;;;;5080046;28;20198;-87
2023/01/03 12:26:21;;;;;;;3.95;2.67;;;10.80;99.90;;;;;;5076503;28;20212;-87
2023/01/03 12:28:50;;;;;;;10.82;3.03;;;10.80;99.90;;;;;;5076084;28;20166;-87
2023/01/03 12:31:37;;;;;;;5.88;3.40;;;10.80;99.90;;;;;;5060717;28;20517;-79
2023/01/03 12:34:09;;;;;;;6.40;3.30;;;10.60;99.90;;;;;;5055653;28;20223;-79
2023/01/03 12:36:52;;;;;;;7.90;3.05;;;10.70;99.90;;;;;;5055498;28;20214;-78
2023/01/03 12:39:40;;;;;;;8.60;2.90;;;10.70;99.90;;;;;;5055280;28;20183;-78
2023/01/03 12:42:22;;;;;;;8.90;2.67;;;10.70;99.90;;;;;;5055619;28;20662;-82
2023/01/03 12:44:58;;;;;;;3.47;2.58;;;10.70;99.90;;;;;;5055949;28;20722;-78
2023/01/03 12:47:35;;;;;;;4.72;2.20;;;10.70;99.90;;;;;;5054810;28;20162;-80
2023/01/03 12:50:14;;;;;;;4.82;2.45;;;10.70;99.90;;;;;;5055186;28;20202;-79
2023/01/03 12:52:42;;;;;;;6.18;2.03;;;10.70;99.90;;;;;;5055284;28;20199;-83
2023/01/03 12:55:22;;;;;;;3.95;2.42;;;10.70;99.90;;;;;;5054452;28;20620;-78
2023/01/03 12:58:17;;;;;;;8.30;2.58;;;10.90;99.90;;;;;;5055606;28;20163;-78
2023/01/03 13:00:51;;;;;;;9.05;2.63;;;10.90;99.90;;;;;;5053128;28;20294;-78
2023/01/03 13:03:43;;;;;;;5.65;1.70;;;10.90;99.90;;;;;;5054903;28;20227;-78
2023/01/03 13:06:16;;;;;;;2.42;1.80;;;10.60;99.90;;;;;;5055371;28;20238;-85
2023/01/03 13:08:48;;;;;;;10.85;3.65;;;10.80;99.90;;;;;;5056617;28;20603;-83
2023/01/03 13:11:41;;;;;;;6.57;2.45;;;10.90;99.90;;;;;;5055669;28;20554;-81
2023/01/03 13:14:22;;;;;;;12.50;2.20;;;10.90;99.90;;;;;;5054144;28;20206;-79
2023/01/03 13:16:51;;;;;;;6.43;2.47;;;10.80;99.90;;;;;;5054511;28;20171;-79
2023/01/03 13:19:22;;;;;;;18.80;2.40;;;10.90;99.90;;;;;;5054523;28;20210;-79
2023/01/03 13:21:52;;;;;;;5.75;2.05;;;10.90;99.90;;;;;;5054754;28;20168;-80
2023/01/03 13:24:40;;;;;;;2.88;2.28;;;10.90;99.90;;;;;;5054406;28;20214;-78
2023/01/03 13:27:19;;;;;;;7.13;2.72;;;10.70;99.90;;;;;;5054269;28;20534;-79
2023/01/03 13:29:53;;;;;;;10.43;2.40;;;10.70;99.90;;;;;;5054249;28;20308;-78
2023/01/03 13:32:19;;;;;;;6.88;2.13;;;10.60;99.90;;;;;;5053711;28;20233;-78
2023/01/03 13:35:04;;;;;;;8.50;2.55;;;10.50;99.90;;;;;;5054130;28;20239;-78
2023/01/03 13:37:50;;;;;;;8.38;2.70;;;10.70;99.90;;;;;;5054908;28;20242;-79
2023/01/03 13:40:27;;;;;;;11.85;2.97;;;10.70;99.90;;;;;;5054363;28;20171;-79
2023/01/03 13:43:03;;;;;;;10.13;2.42;;;10.70;99.90;;;;;;5054261;28;20203;-79
2023/01/03 13:45:28;;;;;;;8.07;2.53;;;10.70;99.90;;;;;;5054213;28;20178;-78
2023/01/03 13:47:55;;;;;;;5.72;2.97;;;10.80;99.90;;;;;;5053880;28;20169;-80
2023/01/03 13:50:31;;;;;;;9.45;2.97;;;10.90;99.90;;;;;;5054065;28;20190;-81
2023/01/03 13:52:56;;;;;;;6.75;3.05;;;10.90;99.90;;;;;;5054700;28;20194;-80
2023/01/03 13:55:39;;;;;;;7.45;2.72;;;10.90;99.90;;;;;;5054110;28;20167;-79
2023/01/03 13:58:42;;;;;;;4.40;2.97;;;10.90;99.90;;;;;;5053626;28;20160;-78
2023/01/03 14:01:27;;;;;;;4.70;2.42;;;11.00;99.90;;;;;;5052723;28;20195;-79
2023/01/03 14:04:14;;;;;;;6.70;2.72;;;10.80;99.90;;;;;;5053989;28;20211;-81
2023/01/03 14:07:07;;;;;;;8.52;3.08;;;10.70;99.90;;;;;;5054358;28;20174;-82
2023/01/03 14:09:41;;;;;;;8.82;3.50;;;10.60;99.90;;;;;;5054335;28;20167;-81
2023/01/03 14:12:45;;;;;;;6.53;3.05;;;10.60;99.90;;;;;;5053847;28;20221;-80
2023/01/03 14:15:24;;;;;;;5.32;2.97;;;10.50;99.90;;;;;;5054104;28;20194;-79
2023/01/03 14:18:01;;;;;;;12.38;3.13;;;10.50;99.90;;;;;;5054532;28;20201;-78